Accueil
METAR-TAF:

METAR-TAF

Aéroports :

Aéroport international Prince Saïd Ibrahim

Moroni, Comores

latitude: 11-32S, longitude: 043-16E, altitude: 29 m

Observation

Le bulletin a été fait il y a 46 minutes, à 07:00 UTC
Vent 12 kt de nord
Température 31°C
Humidité 63%
Pression 1012 hPa
Visibilité 10 km ou plus
Quelques nuages à une hauteur de 2000 ft

METAR: FMCH 230700Z 01012KT 9999 FEW020 31/23 Q1012 NOSIG

Heure: 10:46 (07:46 UTC)

Prévision

Le bulletin a été fait il y a 2 heures et 46 minutes, à 05:00 UTC
Prévision valable du 23 à 06 UTC au 24 à 12 UTC
Vent 13 kt de nord/nord-est
Visibilité 10 km ou plus
Quelques nuages à une hauteur de 2000 ft
Nuages épars à une hauteur de 3000 ft
Evoluant progressivement
du 23 à 16 UTC au 23 à 18 UTC
Vent 3 kt de est
Evoluant progressivement
du 24 à 05 UTC au 24 à 07 UTC
Vent 10 kt de ouest/nord-ouest

TAF: FMCH 230500Z 2306/2412 02013KT 9999 FEW020 SCT030 BECMG 2316/2318 10003KT BECMG 2405/2407 30010KT

Observations et prévisions météorologiques de plus de 4000 aéroports (messages METAR et TAF).

Les stations disponibles sont représentées par des disques jaunes et rouges sur la carte.

Passer la souris dessus pour voir le nom de la station.

Cliquer dessus pour voir les observations et prévisions météorologiques.

Pour changer de carte: cliquez sur les boutons verts avec une croix noire pour zoomer, sur le bouton vert avec un tiret pour effectuer un zoom arrière, ou sur les flèches vertes pour les cartes adjacentes.


METAR-TAF: